sensor_id;sensor_type;location;lat;lon;timestamp;P1;durP1;ratioP1;P2;durP2;ratioP2
58647;SDS011;45992;45.920;20.074;2023-01-29T00:01:29;51.30;;;30.27;;
58647;SDS011;45992;45.920;20.074;2023-01-29T00:03:55;47.95;;;29.52;;
58647;SDS011;45992;45.920;20.074;2023-01-29T00:06:22;49.10;;;30.55;;
58647;SDS011;45992;45.920;20.074;2023-01-29T00:08:48;51.60;;;30.38;;
58647;SDS011;45992;45.920;20.074;2023-01-29T00:11:15;49.17;;;29.98;;
58647;SDS011;45992;45.920;20.074;2023-01-29T00:13:41;52.58;;;32.25;;
58647;SDS011;45992;45.920;20.074;2023-01-29T00:16:08;49.22;;;28.85;;
58647;SDS011;45992;45.920;20.074;2023-01-29T00:18:37;48.63;;;30.67;;
58647;SDS011;45992;45.920;20.074;2023-01-29T00:21:10;51.83;;;30.85;;
58647;SDS011;45992;45.920;20.074;2023-01-29T00:23:36;51.20;;;30.05;;
58647;SDS011;45992;45.920;20.074;2023-01-29T00:26:03;47.95;;;30.38;;
58647;SDS011;45992;45.920;20.074;2023-01-29T00:28:29;52.15;;;30.42;;
58647;SDS011;45992;45.920;20.074;2023-01-29T00:30:55;48.15;;;30.52;;
58647;SDS011;45992;45.920;20.074;2023-01-29T00:33:21;47.25;;;28.90;;
58647;SDS011;45992;45.920;20.074;2023-01-29T00:35:47;49.67;;;30.20;;
58647;SDS011;45992;45.920;20.074;2023-01-29T00:38:14;46.65;;;28.80;;
58647;SDS011;45992;45.920;20.074;2023-01-29T00:40:40;50.50;;;30.50;;
58647;SDS011;45992;45.920;20.074;2023-01-29T00:43:25;49.85;;;29.35;;
58647;SDS011;45992;45.920;20.074;2023-01-29T00:46:10;54.78;;;31.38;;
58647;SDS011;45992;45.920;20.074;2023-01-29T00:48:36;55.65;;;31.60;;
58647;SDS011;45992;45.920;20.074;2023-01-29T00:51:02;56.72;;;31.48;;
58647;SDS011;45992;45.920;20.074;2023-01-29T00:53:29;50.17;;;29.98;;
58647;SDS011;45992;45.920;20.074;2023-01-29T00:55:55;49.60;;;30.02;;
58647;SDS011;45992;45.920;20.074;2023-01-29T00:58:21;48.50;;;29.83;;
58647;SDS011;45992;45.920;20.074;2023-01-29T01:00:58;50.43;;;29.97;;
58647;SDS011;45992;45.920;20.074;2023-01-29T01:03:25;58.08;;;32.65;;
58647;SDS011;45992;45.920;20.074;2023-01-29T01:06:01;52.20;;;31.73;;
58647;SDS011;45992;45.920;20.074;2023-01-29T01:08:27;58.50;;;33.75;;
58647;SDS011;45992;45.920;20.074;2023-01-29T01:11:12;47.92;;;28.50;;
58647;SDS011;45992;45.920;20.074;2023-01-29T01:13:38;48.90;;;28.63;;
58647;SDS011;45992;45.920;20.074;2023-01-29T01:16:14;45.42;;;27.35;;
58647;SDS011;45992;45.920;20.074;2023-01-29T01:18:41;51.75;;;29.15;;
58647;SDS011;45992;45.920;20.074;2023-01-29T01:21:07;51.15;;;30.58;;
58647;SDS011;45992;45.920;20.074;2023-01-29T01:23:33;45.72;;;28.05;;
58647;SDS011;45992;45.920;20.074;2023-01-29T01:26:00;46.72;;;29.58;;
58647;SDS011;45992;45.920;20.074;2023-01-29T01:28:26;46.00;;;29.48;;
58647;SDS011;45992;45.920;20.074;2023-01-29T01:33:19;48.88;;;30.30;;
58647;SDS011;45992;45.920;20.074;2023-01-29T01:35:45;48.80;;;28.58;;
58647;SDS011;45992;45.920;20.074;2023-01-29T01:38:11;45.77;;;29.53;;
58647;SDS011;45992;45.920;20.074;2023-01-29T01:40:42;49.17;;;29.42;;
58647;SDS011;45992;45.920;20.074;2023-01-29T01:43:08;42.70;;;29.33;;
58647;SDS011;45992;45.920;20.074;2023-01-29T01:45:35;50.15;;;30.00;;
58647;SDS011;45992;45.920;20.074;2023-01-29T01:48:09;53.20;;;29.92;;
58647;SDS011;45992;45.920;20.074;2023-01-29T01:50:42;54.40;;;31.88;;
58647;SDS011;45992;45.920;20.074;2023-01-29T01:53:10;54.50;;;30.77;;
58647;SDS011;45992;45.920;20.074;2023-01-29T01:55:39;53.97;;;31.83;;
58647;SDS011;45992;45.920;20.074;2023-01-29T01:58:08;47.85;;;29.27;;
58647;SDS011;45992;45.920;20.074;2023-01-29T02:00:35;46.85;;;28.73;;
58647;SDS011;45992;45.920;20.074;2023-01-29T02:03:01;43.00;;;27.40;;
58647;SDS011;45992;45.920;20.074;2023-01-29T02:05:47;46.67;;;28.60;;
58647;SDS011;45992;45.920;20.074;2023-01-29T02:08:42;45.60;;;28.98;;
58647;SDS011;45992;45.920;20.074;2023-01-29T02:11:28;47.58;;;28.42;;
58647;SDS011;45992;45.920;20.074;2023-01-29T02:13:55;44.53;;;27.42;;
58647;SDS011;45992;45.920;20.074;2023-01-29T02:16:21;45.20;;;27.98;;
58647;SDS011;45992;45.920;20.074;2023-01-29T02:18:48;45.53;;;28.48;;
58647;SDS011;45992;45.920;20.074;2023-01-29T02:32:04;50.70;;;28.60;;
58647;SDS011;45992;45.920;20.074;2023-01-29T02:37:44;48.97;;;29.95;;
58647;SDS011;45992;45.920;20.074;2023-01-29T02:42:35;45.65;;;28.40;;
58647;SDS011;45992;45.920;20.074;2023-01-29T02:55:47;46.75;;;27.23;;
58647;SDS011;45992;45.920;20.074;2023-01-29T02:58:17;48.72;;;28.35;;
58647;SDS011;45992;45.920;20.074;2023-01-29T03:00:46;43.90;;;27.48;;
58647;SDS011;45992;45.920;20.074;2023-01-29T03:03:26;39.83;;;26.27;;
58647;SDS011;45992;45.920;20.074;2023-01-29T03:06:14;44.35;;;26.75;;
58647;SDS011;45992;45.920;20.074;2023-01-29T03:08:50;46.90;;;26.98;;
58647;SDS011;45992;45.920;20.074;2023-01-29T03:11:18;41.65;;;25.02;;
58647;SDS011;45992;45.920;20.074;2023-01-29T03:13:58;39.83;;;24.23;;
58647;SDS011;45992;45.920;20.074;2023-01-29T03:19:36;38.38;;;22.88;;
58647;SDS011;45992;45.920;20.074;2023-01-29T03:22:03;40.35;;;23.88;;
58647;SDS011;45992;45.920;20.074;2023-01-29T03:27:23;35.47;;;22.20;;
58647;SDS011;45992;45.920;20.074;2023-01-29T03:30:10;38.67;;;22.45;;
58647;SDS011;45992;45.920;20.074;2023-01-29T03:32:56;33.80;;;22.48;;
58647;SDS011;45992;45.920;20.074;2023-01-29T03:35:25;40.75;;;22.55;;
58647;SDS011;45992;45.920;20.074;2023-01-29T03:38:04;41.92;;;24.00;;
58647;SDS011;45992;45.920;20.074;2023-01-29T03:40:56;40.67;;;23.50;;
58647;SDS011;45992;45.920;20.074;2023-01-29T03:43:24;32.83;;;19.92;;
58647;SDS011;45992;45.920;20.074;2023-01-29T03:49:01;37.10;;;20.27;;
58647;SDS011;45992;45.920;20.074;2023-01-29T04:02:03;32.00;;;17.92;;
58647;SDS011;45992;45.920;20.074;2023-01-29T04:04:35;30.98;;;17.77;;
58647;SDS011;45992;45.920;20.074;2023-01-29T04:07:07;25.90;;;16.70;;
58647;SDS011;45992;45.920;20.074;2023-01-29T04:09:45;26.55;;;15.80;;
58647;SDS011;45992;45.920;20.074;2023-01-29T04:12:13;29.58;;;17.95;;
58647;SDS011;45992;45.920;20.074;2023-01-29T04:14:40;21.08;;;13.68;;
58647;SDS011;45992;45.920;20.074;2023-01-29T04:17:17;22.92;;;14.68;;
58647;SDS011;45992;45.920;20.074;2023-01-29T04:19:44;27.02;;;15.20;;
58647;SDS011;45992;45.920;20.074;2023-01-29T04:22:13;24.15;;;14.18;;
58647;SDS011;45992;45.920;20.074;2023-01-29T04:24:41;27.67;;;16.65;;
58647;SDS011;45992;45.920;20.074;2023-01-29T04:27:22;29.30;;;16.92;;
58647;SDS011;45992;45.920;20.074;2023-01-29T04:30:17;30.25;;;16.27;;
58647;SDS011;45992;45.920;20.074;2023-01-29T04:32:42;25.13;;;14.73;;
58647;SDS011;45992;45.920;20.074;2023-01-29T04:38:07;28.08;;;14.40;;
58647;SDS011;45992;45.920;20.074;2023-01-29T04:40:58;24.23;;;14.50;;
58647;SDS011;45992;45.920;20.074;2023-01-29T04:43:24;23.63;;;13.90;;
58647;SDS011;45992;45.920;20.074;2023-01-29T04:48:29;26.75;;;16.00;;
58647;SDS011;45992;45.920;20.074;2023-01-29T04:51:05;24.73;;;14.68;;
58647;SDS011;45992;45.920;20.074;2023-01-29T04:53:44;25.42;;;14.38;;
58647;SDS011;45992;45.920;20.074;2023-01-29T04:56:17;24.95;;;15.05;;
58647;SDS011;45992;45.920;20.074;2023-01-29T04:58:46;25.38;;;14.32;;
58647;SDS011;45992;45.920;20.074;2023-01-29T05:01:14;25.65;;;15.18;;
58647;SDS011;45992;45.920;20.074;2023-01-29T05:03:42;23.38;;;14.20;;
58647;SDS011;45992;45.920;20.074;2023-01-29T05:06:10;25.08;;;13.82;;
58647;SDS011;45992;45.920;20.074;2023-01-29T05:08:36;27.50;;;15.38;;
58647;SDS011;45992;45.920;20.074;2023-01-29T05:11:04;30.38;;;17.60;;
58647;SDS011;45992;45.920;20.074;2023-01-29T05:13:30;31.67;;;19.02;;
58647;SDS011;45992;45.920;20.074;2023-01-29T05:16:20;29.42;;;17.73;;
58647;SDS011;45992;45.920;20.074;2023-01-29T05:18:44;36.97;;;21.95;;
58647;SDS011;45992;45.920;20.074;2023-01-29T05:21:10;32.25;;;18.17;;
58647;SDS011;45992;45.920;20.074;2023-01-29T05:23:36;29.45;;;16.70;;
58647;SDS011;45992;45.920;20.074;2023-01-29T05:26:02;31.43;;;17.50;;
58647;SDS011;45992;45.920;20.074;2023-01-29T05:28:29;31.02;;;17.75;;
58647;SDS011;45992;45.920;20.074;2023-01-29T05:30:55;30.85;;;16.70;;
58647;SDS011;45992;45.920;20.074;2023-01-29T05:33:23;33.03;;;18.02;;
58647;SDS011;45992;45.920;20.074;2023-01-29T05:35:49;34.40;;;18.92;;
58647;SDS011;45992;45.920;20.074;2023-01-29T05:38:16;30.83;;;17.48;;
58647;SDS011;45992;45.920;20.074;2023-01-29T05:43:16;28.52;;;17.05;;
58647;SDS011;45992;45.920;20.074;2023-01-29T05:45:42;33.42;;;19.10;;
58647;SDS011;45992;45.920;20.074;2023-01-29T05:48:09;30.67;;;19.30;;
58647;SDS011;45992;45.920;20.074;2023-01-29T05:50:35;29.85;;;15.80;;
58647;SDS011;45992;45.920;20.074;2023-01-29T05:53:01;30.98;;;17.00;;
58647;SDS011;45992;45.920;20.074;2023-01-29T05:55:27;31.60;;;17.47;;
58647;SDS011;45992;45.920;20.074;2023-01-29T05:57:54;28.50;;;15.48;;
58647;SDS011;45992;45.920;20.074;2023-01-29T06:00:20;27.52;;;16.88;;
58647;SDS011;45992;45.920;20.074;2023-01-29T06:02:46;25.02;;;13.77;;
58647;SDS011;45992;45.920;20.074;2023-01-29T06:05:12;29.77;;;15.73;;
58647;SDS011;45992;45.920;20.074;2023-01-29T06:07:39;29.85;;;16.63;;
58647;SDS011;45992;45.920;20.074;2023-01-29T06:10:10;37.78;;;19.83;;
58647;SDS011;45992;45.920;20.074;2023-01-29T06:12:36;27.80;;;15.82;;
58647;SDS011;45992;45.920;20.074;2023-01-29T06:15:03;29.90;;;15.27;;
58647;SDS011;45992;45.920;20.074;2023-01-29T06:17:29;29.67;;;16.45;;
58647;SDS011;45992;45.920;20.074;2023-01-29T06:19:55;31.20;;;16.38;;
58647;SDS011;45992;45.920;20.074;2023-01-29T06:22:21;28.77;;;16.53;;
58647;SDS011;45992;45.920;20.074;2023-01-29T06:24:48;29.23;;;15.83;;
58647;SDS011;45992;45.920;20.074;2023-01-29T06:27:14;37.10;;;20.60;;
58647;SDS011;45992;45.920;20.074;2023-01-29T06:29:40;33.20;;;17.77;;
58647;SDS011;45992;45.920;20.074;2023-01-29T06:32:06;35.83;;;20.13;;
58647;SDS011;45992;45.920;20.074;2023-01-29T06:34:32;34.60;;;19.33;;
58647;SDS011;45992;45.920;20.074;2023-01-29T06:36:58;27.60;;;16.37;;
58647;SDS011;45992;45.920;20.074;2023-01-29T06:39:25;30.67;;;15.73;;
58647;SDS011;45992;45.920;20.074;2023-01-29T06:41:51;30.20;;;17.83;;
58647;SDS011;45992;45.920;20.074;2023-01-29T06:44:17;29.43;;;15.57;;
58647;SDS011;45992;45.920;20.074;2023-01-29T06:46:43;28.92;;;16.63;;
58647;SDS011;45992;45.920;20.074;2023-01-29T06:49:09;26.95;;;14.57;;
58647;SDS011;45992;45.920;20.074;2023-01-29T06:51:35;28.63;;;15.18;;
58647;SDS011;45992;45.920;20.074;2023-01-29T06:54:02;29.35;;;16.73;;
58647;SDS011;45992;45.920;20.074;2023-01-29T06:56:28;25.35;;;14.65;;
58647;SDS011;45992;45.920;20.074;2023-01-29T06:58:54;25.17;;;14.23;;
58647;SDS011;45992;45.920;20.074;2023-01-29T07:01:21;28.33;;;15.63;;
58647;SDS011;45992;45.920;20.074;2023-01-29T07:03:50;27.70;;;15.77;;
58647;SDS011;45992;45.920;20.074;2023-01-29T07:06:16;30.27;;;17.83;;
58647;SDS011;45992;45.920;20.074;2023-01-29T07:08:43;49.45;;;33.55;;
58647;SDS011;45992;45.920;20.074;2023-01-29T07:11:10;33.92;;;19.42;;
58647;SDS011;45992;45.920;20.074;2023-01-29T07:13:36;185.18;;;84.07;;
58647;SDS011;45992;45.920;20.074;2023-01-29T07:16:03;121.25;;;60.38;;
58647;SDS011;45992;45.920;20.074;2023-01-29T07:18:31;108.95;;;58.20;;
58647;SDS011;45992;45.920;20.074;2023-01-29T07:20:57;83.22;;;41.65;;
58647;SDS011;45992;45.920;20.074;2023-01-29T07:23:23;91.80;;;52.15;;
58647;SDS011;45992;45.920;20.074;2023-01-29T07:25:50;54.60;;;32.83;;
58647;SDS011;45992;45.920;20.074;2023-01-29T07:28:16;49.30;;;31.20;;
58647;SDS011;45992;45.920;20.074;2023-01-29T07:30:43;43.67;;;25.45;;
58647;SDS011;45992;45.920;20.074;2023-01-29T07:33:10;40.83;;;21.77;;
58647;SDS011;45992;45.920;20.074;2023-01-29T07:35:39;96.25;;;46.05;;
58647;SDS011;45992;45.920;20.074;2023-01-29T07:38:06;80.88;;;40.22;;
58647;SDS011;45992;45.920;20.074;2023-01-29T07:40:33;42.40;;;24.02;;
58647;SDS011;45992;45.920;20.074;2023-01-29T07:43:00;58.20;;;29.90;;
58647;SDS011;45992;45.920;20.074;2023-01-29T07:47:52;51.97;;;26.17;;
58647;SDS011;45992;45.920;20.074;2023-01-29T07:50:19;70.80;;;33.75;;
58647;SDS011;45992;45.920;20.074;2023-01-29T07:55:12;71.20;;;33.35;;
58647;SDS011;45992;45.920;20.074;2023-01-29T07:57:38;51.38;;;26.50;;
58647;SDS011;45992;45.920;20.074;2023-01-29T08:00:04;47.45;;;24.75;;
58647;SDS011;45992;45.920;20.074;2023-01-29T08:02:31;51.45;;;27.20;;
58647;SDS011;45992;45.920;20.074;2023-01-29T08:04:57;66.77;;;35.93;;
58647;SDS011;45992;45.920;20.074;2023-01-29T08:07:23;45.03;;;26.37;;
58647;SDS011;45992;45.920;20.074;2023-01-29T08:09:49;76.50;;;39.72;;
58647;SDS011;45992;45.920;20.074;2023-01-29T08:12:15;53.47;;;28.47;;
58647;SDS011;45992;45.920;20.074;2023-01-29T08:14:41;50.27;;;31.30;;
58647;SDS011;45992;45.920;20.074;2023-01-29T08:17:10;48.85;;;27.80;;
58647;SDS011;45992;45.920;20.074;2023-01-29T08:19:36;56.00;;;30.52;;
58647;SDS011;45992;45.920;20.074;2023-01-29T08:22:02;46.57;;;28.10;;
58647;SDS011;45992;45.920;20.074;2023-01-29T08:24:29;44.40;;;24.25;;
58647;SDS011;45992;45.920;20.074;2023-01-29T08:26:55;37.33;;;21.65;;
58647;SDS011;45992;45.920;20.074;2023-01-29T08:29:21;44.00;;;23.77;;
58647;SDS011;45992;45.920;20.074;2023-01-29T08:31:47;45.63;;;28.38;;
58647;SDS011;45992;45.920;20.074;2023-01-29T08:34:13;52.17;;;32.90;;
58647;SDS011;45992;45.920;20.074;2023-01-29T08:36:40;54.08;;;31.55;;
58647;SDS011;45992;45.920;20.074;2023-01-29T08:39:06;40.13;;;24.00;;
58647;SDS011;45992;45.920;20.074;2023-01-29T08:41:32;53.90;;;32.25;;
58647;SDS011;45992;45.920;20.074;2023-01-29T08:43:58;160.18;;;71.03;;
58647;SDS011;45992;45.920;20.074;2023-01-29T08:46:26;87.05;;;47.17;;
58647;SDS011;45992;45.920;20.074;2023-01-29T08:48:52;129.82;;;58.30;;
58647;SDS011;45992;45.920;20.074;2023-01-29T08:51:19;103.38;;;43.95;;
58647;SDS011;45992;45.920;20.074;2023-01-29T08:53:46;61.17;;;31.27;;
58647;SDS011;45992;45.920;20.074;2023-01-29T08:56:12;104.10;;;46.58;;
58647;SDS011;45992;45.920;20.074;2023-01-29T08:58:40;84.20;;;42.17;;
58647;SDS011;45992;45.920;20.074;2023-01-29T09:01:10;70.72;;;35.70;;
58647;SDS011;45992;45.920;20.074;2023-01-29T09:03:36;73.93;;;38.60;;
58647;SDS011;45992;45.920;20.074;2023-01-29T09:06:08;49.97;;;27.10;;
58647;SDS011;45992;45.920;20.074;2023-01-29T09:08:34;45.35;;;26.40;;
58647;SDS011;45992;45.920;20.074;2023-01-29T09:11:00;82.10;;;44.70;;
58647;SDS011;45992;45.920;20.074;2023-01-29T09:13:27;126.80;;;61.28;;
58647;SDS011;45992;45.920;20.074;2023-01-29T09:15:53;50.75;;;27.92;;
58647;SDS011;45992;45.920;20.074;2023-01-29T09:18:19;39.35;;;23.33;;
58647;SDS011;45992;45.920;20.074;2023-01-29T09:20:46;35.30;;;20.75;;
58647;SDS011;45992;45.920;20.074;2023-01-29T09:23:12;34.65;;;21.95;;
58647;SDS011;45992;45.920;20.074;2023-01-29T09:25:41;34.95;;;20.55;;
58647;SDS011;45992;45.920;20.074;2023-01-29T09:28:07;46.92;;;28.45;;
58647;SDS011;45992;45.920;20.074;2023-01-29T09:30:33;45.78;;;25.50;;
58647;SDS011;45992;45.920;20.074;2023-01-29T09:33:02;38.90;;;20.73;;
58647;SDS011;45992;45.920;20.074;2023-01-29T09:37:54;78.55;;;47.13;;
58647;SDS011;45992;45.920;20.074;2023-01-29T09:42:49;47.13;;;27.83;;
58647;SDS011;45992;45.920;20.074;2023-01-29T09:45:23;31.55;;;17.08;;
58647;SDS011;45992;45.920;20.074;2023-01-29T09:47:49;42.60;;;21.75;;
58647;SDS011;45992;45.920;20.074;2023-01-29T09:50:17;26.58;;;15.88;;
58647;SDS011;45992;45.920;20.074;2023-01-29T09:53:04;36.53;;;19.45;;
58647;SDS011;45992;45.920;20.074;2023-01-29T09:55:36;37.72;;;23.17;;
58647;SDS011;45992;45.920;20.074;2023-01-29T09:58:06;42.20;;;22.00;;
58647;SDS011;45992;45.920;20.074;2023-01-29T10:00:39;40.78;;;22.10;;
58647;SDS011;45992;45.920;20.074;2023-01-29T10:11:06;34.13;;;20.70;;
58647;SDS011;45992;45.920;20.074;2023-01-29T10:24:10;34.40;;;19.15;;
58647;SDS011;45992;45.920;20.074;2023-01-29T10:26:38;42.97;;;28.42;;
58647;SDS011;45992;45.920;20.074;2023-01-29T10:29:05;43.95;;;26.23;;
58647;SDS011;45992;45.920;20.074;2023-01-29T10:31:33;38.90;;;23.20;;
58647;SDS011;45992;45.920;20.074;2023-01-29T10:36:42;32.47;;;18.45;;
58647;SDS011;45992;45.920;20.074;2023-01-29T10:39:16;45.25;;;20.58;;
58647;SDS011;45992;45.920;20.074;2023-01-29T10:41:55;78.88;;;41.78;;
58647;SDS011;45992;45.920;20.074;2023-01-29T11:02:21;42.95;;;22.83;;
58647;SDS011;45992;45.920;20.074;2023-01-29T11:04:47;44.45;;;27.10;;
58647;SDS011;45992;45.920;20.074;2023-01-29T11:07:14;66.97;;;43.35;;
58647;SDS011;45992;45.920;20.074;2023-01-29T11:09:50;39.40;;;24.60;;
58647;SDS011;45992;45.920;20.074;2023-01-29T11:12:19;36.45;;;21.35;;
58647;SDS011;45992;45.920;20.074;2023-01-29T11:17:23;58.03;;;27.48;;
58647;SDS011;45992;45.920;20.074;2023-01-29T11:19:50;58.47;;;31.20;;
58647;SDS011;45992;45.920;20.074;2023-01-29T11:22:18;59.38;;;33.47;;
58647;SDS011;45992;45.920;20.074;2023-01-29T11:24:45;56.58;;;33.58;;
58647;SDS011;45992;45.920;20.074;2023-01-29T11:27:12;41.63;;;24.48;;
58647;SDS011;45992;45.920;20.074;2023-01-29T11:29:41;57.17;;;30.85;;
58647;SDS011;45992;45.920;20.074;2023-01-29T11:32:23;93.03;;;45.35;;
58647;SDS011;45992;45.920;20.074;2023-01-29T11:35:00;33.10;;;18.85;;
58647;SDS011;45992;45.920;20.074;2023-01-29T11:37:36;71.95;;;41.78;;
58647;SDS011;45992;45.920;20.074;2023-01-29T11:42:44;33.42;;;19.35;;
58647;SDS011;45992;45.920;20.074;2023-01-29T11:47:36;59.58;;;34.50;;
58647;SDS011;45992;45.920;20.074;2023-01-29T11:50:03;81.68;;;44.72;;
58647;SDS011;45992;45.920;20.074;2023-01-29T11:52:34;98.78;;;45.63;;
58647;SDS011;45992;45.920;20.074;2023-01-29T11:55:02;69.75;;;31.92;;
58647;SDS011;45992;45.920;20.074;2023-01-29T11:57:34;85.18;;;36.47;;
58647;SDS011;45992;45.920;20.074;2023-01-29T12:00:02;91.70;;;41.25;;
58647;SDS011;45992;45.920;20.074;2023-01-29T12:02:43;53.70;;;28.95;;
58647;SDS011;45992;45.920;20.074;2023-01-29T12:05:15;140.60;;;66.47;;
58647;SDS011;45992;45.920;20.074;2023-01-29T12:07:42;72.70;;;39.45;;
58647;SDS011;45992;45.920;20.074;2023-01-29T12:13:02;56.53;;;31.25;;
58647;SDS011;45992;45.920;20.074;2023-01-29T12:15:29;128.80;;;54.67;;
58647;SDS011;45992;45.920;20.074;2023-01-29T12:18:06;100.05;;;47.70;;
58647;SDS011;45992;45.920;20.074;2023-01-29T12:20:41;51.42;;;28.75;;
58647;SDS011;45992;45.920;20.074;2023-01-29T12:26:01;94.43;;;50.58;;
58647;SDS011;45992;45.920;20.074;2023-01-29T12:28:41;109.30;;;53.10;;
58647;SDS011;45992;45.920;20.074;2023-01-29T12:31:18;117.30;;;64.28;;
58647;SDS011;45992;45.920;20.074;2023-01-29T12:33:52;133.95;;;71.05;;
58647;SDS011;45992;45.920;20.074;2023-01-29T12:38:46;100.80;;;61.72;;
58647;SDS011;45992;45.920;20.074;2023-01-29T12:43:43;91.88;;;54.72;;
58647;SDS011;45992;45.920;20.074;2023-01-29T12:46:17;103.53;;;62.00;;
58647;SDS011;45992;45.920;20.074;2023-01-29T12:48:45;101.15;;;57.95;;
58647;SDS011;45992;45.920;20.074;2023-01-29T12:51:14;94.65;;;58.97;;
58647;SDS011;45992;45.920;20.074;2023-01-29T12:53:53;69.47;;;40.15;;
58647;SDS011;45992;45.920;20.074;2023-01-29T12:59:11;70.38;;;39.92;;
58647;SDS011;45992;45.920;20.074;2023-01-29T13:01:57;76.88;;;40.38;;
58647;SDS011;45992;45.920;20.074;2023-01-29T13:04:46;106.93;;;48.88;;
58647;SDS011;45992;45.920;20.074;2023-01-29T13:07:15;79.15;;;39.35;;
58647;SDS011;45992;45.920;20.074;2023-01-29T13:09:44;74.00;;;40.85;;
58647;SDS011;45992;45.920;20.074;2023-01-29T13:12:15;81.75;;;39.45;;
58647;SDS011;45992;45.920;20.074;2023-01-29T13:14:59;63.33;;;35.80;;
58647;SDS011;45992;45.920;20.074;2023-01-29T13:20:00;91.35;;;48.45;;
58647;SDS011;45992;45.920;20.074;2023-01-29T13:22:30;72.72;;;37.60;;
58647;SDS011;45992;45.920;20.074;2023-01-29T13:24:59;56.10;;;31.23;;
58647;SDS011;45992;45.920;20.074;2023-01-29T13:27:26;55.88;;;33.72;;
58647;SDS011;45992;45.920;20.074;2023-01-29T13:29:54;59.97;;;32.70;;
58647;SDS011;45992;45.920;20.074;2023-01-29T13:32:22;54.83;;;30.55;;
58647;SDS011;45992;45.920;20.074;2023-01-29T13:34:49;61.88;;;31.75;;
58647;SDS011;45992;45.920;20.074;2023-01-29T13:37:17;54.92;;;29.55;;
58647;SDS011;45992;45.920;20.074;2023-01-29T13:39:48;63.63;;;31.23;;
58647;SDS011;45992;45.920;20.074;2023-01-29T13:42:32;72.15;;;33.90;;
58647;SDS011;45992;45.920;20.074;2023-01-29T13:45:01;68.75;;;34.70;;
58647;SDS011;45992;45.920;20.074;2023-01-29T13:47:29;91.40;;;44.47;;
58647;SDS011;45992;45.920;20.074;2023-01-29T13:50:01;116.15;;;52.85;;
58647;SDS011;45992;45.920;20.074;2023-01-29T13:54:57;150.95;;;66.93;;
58647;SDS011;45992;45.920;20.074;2023-01-29T14:00:55;115.95;;;54.60;;
58647;SDS011;45992;45.920;20.074;2023-01-29T14:07:59;130.05;;;58.17;;
58647;SDS011;45992;45.920;20.074;2023-01-29T16:20:48;76.43;;;45.95;;
58647;SDS011;45992;45.920;20.074;2023-01-29T16:23:17;65.25;;;38.03;;
58647;SDS011;45992;45.920;20.074;2023-01-29T16:25:43;75.50;;;40.65;;
58647;SDS011;45992;45.920;20.074;2023-01-29T16:28:10;59.97;;;35.15;;
58647;SDS011;45992;45.920;20.074;2023-01-29T16:30:36;65.72;;;36.17;;
58647;SDS011;45992;45.920;20.074;2023-01-29T16:33:03;64.13;;;33.13;;
58647;SDS011;45992;45.920;20.074;2023-01-29T16:35:30;65.50;;;35.50;;
58647;SDS011;45992;45.920;20.074;2023-01-29T16:37:59;84.82;;;43.13;;
58647;SDS011;45992;45.920;20.074;2023-01-29T16:40:31;58.45;;;34.13;;
58647;SDS011;45992;45.920;20.074;2023-01-29T16:46:03;47.33;;;29.05;;
58647;SDS011;45992;45.920;20.074;2023-01-29T16:48:31;57.08;;;33.17;;
58647;SDS011;45992;45.920;20.074;2023-01-29T16:51:35;57.90;;;34.22;;
58647;SDS011;45992;45.920;20.074;2023-01-29T16:53:57;46.63;;;28.75;;
58647;SDS011;45992;45.920;20.074;2023-01-29T16:56:24;55.00;;;32.65;;
58647;SDS011;45992;45.920;20.074;2023-01-29T16:58:51;51.03;;;28.30;;
58647;SDS011;45992;45.920;20.074;2023-01-29T17:01:19;40.67;;;24.40;;
58647;SDS011;45992;45.920;20.074;2023-01-29T17:03:50;39.88;;;24.05;;
58647;SDS011;45992;45.920;20.074;2023-01-29T17:06:20;36.60;;;23.42;;
58647;SDS011;45992;45.920;20.074;2023-01-29T17:08:46;40.45;;;24.00;;
58647;SDS011;45992;45.920;20.074;2023-01-29T17:11:20;37.25;;;23.70;;
58647;SDS011;45992;45.920;20.074;2023-01-29T17:13:48;55.15;;;31.40;;
58647;SDS011;45992;45.920;20.074;2023-01-29T17:16:15;59.63;;;33.92;;
58647;SDS011;45992;45.920;20.074;2023-01-29T17:18:45;74.55;;;40.70;;
58647;SDS011;45992;45.920;20.074;2023-01-29T17:21:11;68.68;;;42.45;;
58647;SDS011;45992;45.920;20.074;2023-01-29T17:23:37;68.17;;;45.00;;
58647;SDS011;45992;45.920;20.074;2023-01-29T17:26:03;62.30;;;36.55;;
58647;SDS011;45992;45.920;20.074;2023-01-29T17:28:31;53.92;;;34.10;;
58647;SDS011;45992;45.920;20.074;2023-01-29T17:30:57;59.90;;;34.75;;
58647;SDS011;45992;45.920;20.074;2023-01-29T17:33:24;55.58;;;31.77;;
58647;SDS011;45992;45.920;20.074;2023-01-29T17:35:50;44.30;;;28.40;;
58647;SDS011;45992;45.920;20.074;2023-01-29T17:38:17;47.05;;;28.40;;
58647;SDS011;45992;45.920;20.074;2023-01-29T17:40:51;58.03;;;30.67;;
58647;SDS011;45992;45.920;20.074;2023-01-29T17:43:20;51.88;;;30.70;;
58647;SDS011;45992;45.920;20.074;2023-01-29T17:45:46;51.85;;;30.15;;
58647;SDS011;45992;45.920;20.074;2023-01-29T17:48:13;53.27;;;29.10;;
58647;SDS011;45992;45.920;20.074;2023-01-29T17:53:05;61.30;;;36.72;;
58647;SDS011;45992;45.920;20.074;2023-01-29T17:55:32;56.10;;;33.75;;
58647;SDS011;45992;45.920;20.074;2023-01-29T17:57:58;46.83;;;28.30;;
58647;SDS011;45992;45.920;20.074;2023-01-29T18:00:24;46.47;;;28.97;;
58647;SDS011;45992;45.920;20.074;2023-01-29T18:02:50;49.42;;;29.88;;
58647;SDS011;45992;45.920;20.074;2023-01-29T18:05:17;50.53;;;31.85;;
58647;SDS011;45992;45.920;20.074;2023-01-29T18:07:43;54.13;;;32.08;;
58647;SDS011;45992;45.920;20.074;2023-01-29T18:10:15;45.42;;;29.67;;
58647;SDS011;45992;45.920;20.074;2023-01-29T18:12:42;45.22;;;28.27;;
58647;SDS011;45992;45.920;20.074;2023-01-29T18:15:08;47.60;;;30.67;;
58647;SDS011;45992;45.920;20.074;2023-01-29T18:17:35;45.92;;;31.17;;
58647;SDS011;45992;45.920;20.074;2023-01-29T18:20:02;46.67;;;29.38;;
58647;SDS011;45992;45.920;20.074;2023-01-29T18:22:28;55.95;;;31.27;;
58647;SDS011;45992;45.920;20.074;2023-01-29T18:24:54;60.70;;;32.67;;
58647;SDS011;45992;45.920;20.074;2023-01-29T18:27:21;86.25;;;47.40;;
58647;SDS011;45992;45.920;20.074;2023-01-29T18:29:47;62.45;;;40.67;;
58647;SDS011;45992;45.920;20.074;2023-01-29T18:32:14;62.20;;;38.22;;
58647;SDS011;45992;45.920;20.074;2023-01-29T18:34:40;55.13;;;33.88;;
58647;SDS011;45992;45.920;20.074;2023-01-29T18:37:07;50.88;;;31.92;;
58647;SDS011;45992;45.920;20.074;2023-01-29T18:39:33;49.92;;;31.48;;
58647;SDS011;45992;45.920;20.074;2023-01-29T18:41:59;42.67;;;25.33;;
58647;SDS011;45992;45.920;20.074;2023-01-29T18:44:26;42.53;;;25.00;;
58647;SDS011;45992;45.920;20.074;2023-01-29T18:46:53;42.25;;;23.25;;
58647;SDS011;45992;45.920;20.074;2023-01-29T18:49:19;49.13;;;27.52;;
58647;SDS011;45992;45.920;20.074;2023-01-29T18:51:46;45.87;;;27.70;;
58647;SDS011;45992;45.920;20.074;2023-01-29T18:54:12;46.30;;;23.75;;
58647;SDS011;45992;45.920;20.074;2023-01-29T18:56:38;29.90;;;17.80;;